Rock Island, Texas
Current Conditions -  °F | °C
As of 3:35 AM on Saturday 20 Dec 2014 (Local Time) from K66R Reporting Station
Overcast Overcast  
Wind Chill: 47°   Ceiling: 1000
Heat Index: 50°   Visibility: 10mi
Dew Point: 47°   Wind: 7mph
Humidity: 92%   Direction: 360°N
Pressure: 30.15"   Gusts: NA
Location:  29.53°N, 96.57°W
Report Text: K66R 200935Z AUTO 36006KT 10SM OVC010 10/09 A3015 RMK AO2 T00990086
Loading
Personal Weather Stations






























Interactive Weather Map New forecast layout! Learn more

10-Day Weather Forecast

Advertisements
Track Severe Weather on mobile